Time;durP1;ratioP1;P1;durP2;ratioP2;P2;SDS_P1;SDS_P2;PMS_P1;PMS_P2;Temp;Humidity;BMP_temperature;BMP_pressure;BME280_temperature;BME280_humidity;BME280_pressure;Samples;Min_cycle;Max_cycle;Signal;HPM_P1;HPM_P2
2023/09/27 06:44:09;;;;;;;10.43;4.00;;;;;;;13.76;76.72;97125.78;2087399;28;20557;-63
2023/09/27 06:46:21;;;;;;;8.82;3.85;;;;;;;13.97;76.22;97123.03;2093083;28;20566;-63
2023/09/27 06:47:27;;;;;;;5.40;3.42;;;;;;;14.04;75.97;97127.03;2079322;28;20891;-63
2023/09/27 06:48:29;;;;;;;5.78;3.55;;;;;;;14.26;75.11;97124.16;2075458;28;20935;-63
2023/09/27 06:49:31;;;;;;;8.07;3.40;;;;;;;14.28;74.64;97124.06;2074980;28;20197;-64
2023/09/27 06:50:32;;;;;;;6.95;3.60;;;;;;;14.40;74.45;97122.56;2074576;28;20552;-63
2023/09/27 06:51:34;;;;;;;5.80;3.35;;;;;;;14.45;74.19;97120.53;2074398;28;20200;-64
2023/09/27 06:52:37;;;;;;;6.22;3.80;;;;;;;14.61;73.36;97117.97;2073754;28;20286;-63
2023/09/27 06:53:39;;;;;;;8.50;3.60;;;;;;;14.46;73.90;97122.25;2073284;28;20219;-63
2023/09/27 06:54:41;;;;;;;8.95;3.25;;;;;;;14.33;74.34;97128.13;2073428;28;20742;-63
2023/09/27 06:55:45;;;;;;;7.10;3.15;;;;;;;14.47;74.45;97124.78;2070925;28;20198;-63
2023/09/27 06:56:46;;;;;;;6.38;3.30;;;;;;;14.62;73.81;97122.28;2070747;28;20221;-63
2023/09/27 06:57:52;;;;;;;7.43;3.75;;;;;;;14.71;73.60;97111.31;2073669;28;20617;-64
2023/09/27 06:58:53;;;;;;;4.45;3.42;;;;;;;15.11;72.44;97111.75;2073622;28;20205;-64
2023/09/27 06:59:55;;;;;;;11.38;3.25;;;;;;;15.40;70.89;97116.31;2072667;28;20446;-64
2023/09/27 07:00:56;;;;;;;5.20;2.92;;;;;;;15.51;70.92;97111.28;2073549;28;20197;-64
2023/09/27 07:01:58;;;;;;;8.65;3.50;;;;;;;15.62;71.04;97110.69;2074121;28;20497;-64
2023/09/27 07:02:59;;;;;;;18.05;3.60;;;;;;;16.00;69.61;97108.47;2074787;28;20251;-64
2023/09/27 07:04:04;;;;;;;12.70;2.92;;;;;;;15.83;70.25;97106.84;2074583;28;20247;-64
2023/09/27 07:05:05;;;;;;;5.63;3.35;;;;;;;16.15;69.89;97111.97;2073409;28;20209;-64
2023/09/27 07:06:07;;;;;;;5.28;2.88;;;;;;;16.02;70.73;97112.81;2071932;28;20301;-64
2023/09/27 07:07:11;;;;;;;7.63;2.90;;;;;;;16.18;70.22;97118.84;2073423;28;20298;-64
2023/09/27 07:08:13;;;;;;;8.73;3.33;;;;;;;16.33;69.68;97111.81;2075443;28;20205;-64
2023/09/27 07:09:16;;;;;;;6.50;3.47;;;;;;;16.95;67.95;97116.81;2074715;28;20233;-64
2023/09/27 07:10:18;;;;;;;4.80;2.92;;;;;;;17.36;66.60;97120.38;2073448;28;20198;-64
2023/09/27 07:11:19;;;;;;;10.07;2.83;;;;;;;17.20;66.66;97122.31;2073635;28;20194;-64
2023/09/27 07:12:21;;;;;;;5.35;2.67;;;;;;;16.96;67.20;97118.50;2073005;28;20225;-64
2023/09/27 07:13:22;;;;;;;5.60;2.95;;;;;;;17.27;66.48;97118.34;2072204;28;20209;-64
2023/09/27 07:14:24;;;;;;;10.98;3.47;;;;;;;17.02;66.61;97111.16;2072298;28;20217;-64
2023/09/27 07:15:25;;;;;;;4.35;2.67;;;;;;;17.20;66.70;97114.41;2073038;28;20552;-64
2023/09/27 07:16:29;;;;;;;7.97;2.88;;;;;;;17.51;65.84;97118.56;2072624;28;20196;-64
2023/09/27 07:17:31;;;;;;;7.25;3.03;;;;;;;17.74;65.09;97114.38;2073594;28;20222;-64
2023/09/27 07:18:35;;;;;;;6.15;2.72;;;;;;;18.06;64.90;97111.41;2070708;28;20194;-64
2023/09/27 07:19:37;;;;;;;9.00;2.75;;;;;;;18.46;63.67;97114.94;2070838;28;20209;-64
2023/09/27 07:20:40;;;;;;;7.90;2.90;;;;;;;18.61;63.52;97116.50;2074015;28;20201;-64
2023/09/27 07:21:41;;;;;;;7.05;2.90;;;;;;;18.42;63.77;97119.56;2074195;28;20202;-64
2023/09/27 07:22:44;;;;;;;3.70;2.70;;;;;;;18.40;63.41;97117.03;2073490;28;20233;-65
2023/09/27 07:23:47;;;;;;;5.80;3.08;;;;;;;18.26;64.03;97117.16;2074697;28;20543;-64
2023/09/27 07:24:48;;;;;;;6.85;2.70;;;;;;;18.43;64.53;97114.16;2070723;28;20204;-64
2023/09/27 07:25:50;;;;;;;8.85;3.00;;;;;;;18.74;63.55;97119.13;2073028;28;20200;-65
2023/09/27 07:26:52;;;;;;;8.32;3.13;;;;;;;19.13;62.23;97108.50;2070979;28;20194;-66
2023/09/27 07:27:55;;;;;;;6.72;2.95;;;;;;;19.38;61.32;97113.69;2071500;28;20193;-65
2023/09/27 07:28:57;;;;;;;9.27;2.60;;;;;;;19.42;61.65;97112.50;2070433;28;20244;-65
2023/09/27 07:29:59;;;;;;;5.75;2.95;;;;;;;19.52;61.84;97115.34;2074669;28;20198;-65
2023/09/27 07:31:00;;;;;;;5.60;3.15;;;;;;;19.58;60.69;97112.25;2074600;28;20779;-66
2023/09/27 07:32:03;;;;;;;6.93;3.25;;;;;;;19.30;61.72;97110.78;2073551;28;20688;-66
2023/09/27 07:33:11;;;;;;;3.67;2.33;;;;;;;20.22;60.04;97113.69;2074541;28;20232;-65
2023/09/27 07:34:13;;;;;;;13.52;2.97;;;;;;;19.74;61.18;97108.44;2074343;28;20213;-65
2023/09/27 07:35:16;;;;;;;12.15;2.67;;;;;;;20.34;59.65;97116.34;2073465;28;20248;-65
2023/09/27 07:36:20;;;;;;;15.23;2.88;;;;;;;20.62;58.81;97109.75;2074458;28;20197;-66
2023/09/27 07:37:22;;;;;;;6.00;2.60;;;;;;;20.88;58.47;97107.72;2069965;28;20260;-66
2023/09/27 07:38:23;;;;;;;7.07;2.80;;;;;;;21.06;57.58;97114.34;2070364;28;20328;-65
2023/09/27 07:39:25;;;;;;;7.95;2.75;;;;;;;20.99;57.71;97111.34;2076418;28;20212;-65
2023/09/27 07:40:27;;;;;;;6.57;2.70;;;;;;;20.84;58.63;97114.25;2070618;28;20198;-66
2023/09/27 07:41:28;;;;;;;11.52;3.22;;;;;;;20.96;58.38;97117.75;2070585;28;20190;-65
2023/09/27 07:42:30;;;;;;;11.52;3.38;;;;;;;21.92;56.61;97110.00;2073541;28;20271;-66
2023/09/27 07:43:31;;;;;;;10.25;2.90;;;;;;;22.05;55.72;97112.47;2075327;28;20317;-66
2023/09/27 07:44:33;;;;;;;7.70;3.50;;;;;;;22.10;55.95;97110.28;2073589;28;20284;-66
2023/09/27 07:45:36;;;;;;;12.60;3.92;;;;;;;22.09;56.15;97113.91;2072234;28;20804;-66
2023/09/27 07:46:38;;;;;;;11.45;3.13;;;;;;;22.47;55.28;97114.31;2071441;28;20214;-66
2023/09/27 07:47:39;;;;;;;18.38;3.70;;;;;;;22.38;55.49;97115.94;2071632;28;20221;-66
2023/09/27 07:48:42;;;;;;;8.88;3.15;;;;;;;22.50;55.20;97108.75;2073791;28;20621;-66
2023/09/27 07:49:43;;;;;;;10.73;3.10;;;;;;;22.16;55.58;97106.28;2072840;28;20198;-66
2023/09/27 07:50:45;;;;;;;13.75;2.92;;;;;;;22.29;56.01;97114.88;2074019;28;20212;-66
2023/09/27 07:51:46;;;;;;;14.33;3.10;;;;;;;22.83;55.27;97112.97;2073430;28;20197;-66
2023/09/27 07:52:48;;;;;;;7.67;3.63;;;;;;;22.31;56.45;97112.94;2073694;28;20435;-66
2023/09/27 07:53:49;;;;;;;18.83;2.97;;;;;;;22.61;55.60;97121.13;2073048;28;20466;-66
2023/09/27 07:54:51;;;;;;;17.42;3.45;;;;;;;22.57;55.30;97109.06;2070530;28;20782;-67
2023/09/27 07:55:55;;;;;;;35.13;3.30;;;;;;;22.34;56.21;97115.31;2070702;28;20289;-66
2023/09/27 07:56:59;;;;;;;18.60;3.67;;;;;;;22.93;55.39;97110.34;2072027;28;20501;-66
2023/09/27 07:58:03;;;;;;;28.20;3.83;;;;;;;22.98;54.87;97113.44;2067803;28;20432;-66
2023/09/27 07:59:06;;;;;;;13.00;3.17;;;;;;;23.17;54.94;97109.16;2067774;28;20431;-66
2023/09/27 08:00:08;;;;;;;14.30;4.13;;;;;;;23.52;54.32;97115.00;2068660;28;20514;-66
2023/09/27 08:01:12;;;;;;;15.93;3.13;;;;;;;23.69;54.02;97105.47;2068788;28;21022;-66
2023/09/27 08:02:14;;;;;;;18.83;3.13;;;;;;;23.94;53.41;97112.09;2067923;28;20475;-66
2023/09/27 08:03:18;;;;;;;28.57;3.67;;;;;;;23.78;53.87;97102.81;2069093;28;20898;-66
2023/09/27 08:04:20;;;;;;;19.37;3.53;;;;;;;24.24;52.96;97105.75;2069467;28;20969;-66
2023/09/27 08:05:22;;;;;;;17.47;3.10;;;;;;;25.11;51.22;97113.59;2067458;28;20423;-66
2023/09/27 08:06:23;;;;;;;21.37;4.03;;;;;;;24.21;52.72;97102.50;2067221;28;20516;-66
2023/09/27 08:07:25;;;;;;;37.47;3.60;;;;;;;24.36;52.55;97108.25;2067189;28;21132;-66
2023/09/27 08:08:26;;;;;;;11.93;3.47;;;;;;;24.07;52.91;97107.28;2067740;28;20515;-66
2023/09/27 08:09:28;;;;;;;11.83;2.70;;;;;;;24.18;53.27;97102.81;2067596;28;20423;-66
2023/09/27 08:10:35;;;;;;;6.93;2.90;;;;;;;24.07;53.42;97103.78;2067339;28;20451;-66
2023/09/27 08:11:37;;;;;;;11.10;3.00;;;;;;;24.62;52.38;97103.13;2065285;28;20486;-66
2023/09/27 08:12:39;;;;;;;8.90;3.30;;;;;;;24.80;51.83;97105.03;2064991;28;20542;-66
2023/09/27 08:13:41;;;;;;;6.40;2.57;;;;;;;24.19;53.34;97104.47;2068489;28;20522;-66
2023/09/27 08:14:42;;;;;;;11.03;2.57;;;;;;;24.08;54.01;97100.97;2066333;28;20432;-66
2023/09/27 08:15:48;;;;;;;9.87;2.33;;;;;;;24.24;53.87;97095.06;2067351;28;20428;-66
2023/09/27 08:16:50;;;;;;;7.97;2.57;;;;;;;24.97;52.79;97095.41;2067525;28;20449;-66
2023/09/27 08:17:52;;;;;;;6.60;2.57;;;;;;;25.61;51.44;97098.13;2068949;28;20896;-66
2023/09/27 08:18:54;;;;;;;18.70;2.60;;;;;;;26.04;50.81;97094.69;2065028;28;20459;-67
2023/09/27 08:19:55;;;;;;;9.60;2.87;;;;;;;26.04;50.52;97099.19;2065457;28;20444;-66
2023/09/27 08:20:56;;;;;;;11.27;2.10;;;;;;;25.54;51.77;97104.09;2064949;28;20431;-66
2023/09/27 08:21:58;;;;;;;5.20;2.37;;;;;;;26.64;50.04;97102.97;2064960;28;20462;-67
2023/09/27 08:22:59;;;;;;;9.23;2.33;;;;;;;27.54;48.05;97103.38;2069020;28;20439;-66
2023/09/27 08:24:01;;;;;;;5.07;2.37;;;;;;;27.01;48.89;97104.53;2068565;28;20471;-66
2023/09/27 08:25:06;;;;;;;8.13;2.77;;;;;;;27.03;48.80;97102.50;2067909;28;20478;-67
2023/09/27 08:26:12;;;;;;;11.77;2.93;;;;;;;26.96;49.34;97107.69;2064810;28;20432;-66
2023/09/27 08:27:13;;;;;;;16.27;2.63;;;;;;;27.10;49.23;97105.41;2065386;28;20464;-67
2023/09/27 08:28:16;;;;;;;15.13;2.60;;;;;;;28.05;47.47;97101.59;2064986;28;20432;-66
2023/09/27 08:29:20;;;;;;;11.80;2.80;;;;;;;27.90;47.82;97101.44;2065486;28;20486;-66
2023/09/27 08:30:22;;;;;;;18.40;3.10;;;;;;;27.23;49.29;97097.72;2069139;28;20424;-66
2023/09/27 08:31:23;;;;;;;13.77;2.70;;;;;;;26.88;49.80;97103.13;2068717;28;20581;-66
2023/09/27 08:32:25;;;;;;;11.87;2.17;;;;;;;27.23;49.07;97105.78;2068092;28;20463;-66
2023/09/27 08:33:27;;;;;;;18.53;2.60;;;;;;;26.92;48.83;97103.66;2067967;28;20430;-66
2023/09/27 08:34:29;;;;;;;9.80;2.60;;;;;;;27.12;48.18;97101.56;2068388;28;20486;-67
2023/09/27 08:35:30;;;;;;;7.77;3.00;;;;;;;26.97;49.09;97100.47;2068704;28;20514;-66
2023/09/27 08:36:32;;;;;;;16.57;3.83;;;;;;;27.05;49.64;97089.81;2064702;28;20436;-66
2023/09/27 08:37:34;;;;;;;10.47;3.00;;;;;;;26.94;48.30;97090.91;2066653;28;20476;-66
2023/09/27 08:38:35;;;;;;;20.07;3.03;;;;;;;28.22;47.27;97080.97;2068197;28;20818;-66
2023/09/27 08:39:41;;;;;;;11.60;3.07;;;;;;;28.05;46.90;97094.41;2066780;28;20486;-66
2023/09/27 08:40:42;;;;;;;13.30;3.50;;;;;;;27.69;47.85;97083.94;2067106;28;20456;-65
2023/09/27 08:41:44;;;;;;;10.73;3.20;;;;;;;27.05;48.61;97084.44;2068788;28;20530;-65
2023/09/27 08:42:50;;;;;;;10.53;3.00;;;;;;;27.93;47.53;97079.63;2067241;28;20456;-65
2023/09/27 08:43:52;;;;;;;12.10;2.67;;;;;;;26.89;49.03;97070.00;2069810;28;20466;-65
2023/09/27 08:44:54;;;;;;;6.87;2.70;;;;;;;26.88;49.31;97075.50;2070517;28;20430;-65
2023/09/27 08:45:55;;;;;;;18.67;3.42;;;;;;;26.66;49.50;97076.88;2064369;28;20480;-66
2023/09/27 08:46:57;;;;;;;11.30;2.72;;;;;;;26.91;49.70;97077.03;2066035;28;20869;-65
2023/09/27 08:47:59;;;;;;;5.30;2.90;;;;;;;26.61;49.45;97076.50;2064757;28;20203;-65
2023/09/27 08:49:02;;;;;;;10.25;2.55;;;;;;;26.63;49.37;97079.88;2064749;28;20202;-65
2023/09/27 08:50:05;;;;;;;6.28;2.30;;;;;;;26.54;49.13;97070.97;2067606;28;20202;-65
2023/09/27 08:51:06;;;;;;;5.13;2.72;;;;;;;26.04;50.27;97080.47;2067588;28;20209;-65
2023/09/27 08:52:09;;;;;;;7.63;2.35;;;;;;;26.69;49.37;97080.06;2067075;28;20253;-65
2023/09/27 08:53:10;;;;;;;6.07;2.58;;;;;;;26.20;50.25;97074.44;2069933;28;20271;-65
2023/09/27 08:54:16;;;;;;;6.90;2.65;;;;;;;26.82;49.09;97068.94;2068000;28;20549;-65
2023/09/27 08:55:19;;;;;;;16.55;2.90;;;;;;;26.43;49.36;97072.06;2067375;28;20194;-65
2023/09/27 08:56:23;;;;;;;6.57;3.05;;;;;;;26.56;48.72;97067.13;2064564;28;20191;-65
2023/09/27 08:57:29;;;;;;;8.32;2.97;;;;;;;26.62;49.28;97070.16;2064943;28;20744;-65
2023/09/27 08:58:31;;;;;;;9.98;3.47;;;;;;;27.12;48.56;97061.38;2068333;28;20650;-66
2023/09/27 08:59:33;;;;;;;6.22;2.67;;;;;;;27.19;47.29;97062.38;2068910;28;20542;-66
2023/09/27 09:00:34;;;;;;;8.07;3.03;;;;;;;27.28;48.15;97057.06;2068182;28;20706;-65
2023/09/27 09:01:38;;;;;;;9.23;2.45;;;;;;;27.25;48.47;97054.69;2068426;28;20649;-65
2023/09/27 09:02:43;;;;;;;20.63;3.28;;;;;;;26.64;49.31;97054.75;2066804;28;20308;-66
2023/09/27 09:03:46;;;;;;;6.85;2.40;;;;;;;26.39;49.71;97055.47;2067231;28;20206;-65
2023/09/27 09:04:49;;;;;;;7.78;3.15;;;;;;;26.87;49.26;97053.22;2067161;28;20202;-65
2023/09/27 09:05:51;;;;;;;4.38;2.58;;;;;;;27.14;48.25;97056.66;2068013;28;20229;-65
2023/09/27 09:06:52;;;;;;;8.02;2.50;;;;;;;27.51;48.45;97050.06;2064452;28;20207;-65
2023/09/27 09:08:01;;;;;;;7.63;3.15;;;;;;;27.40;48.64;97046.88;2065592;28;20226;-65
2023/09/27 09:09:12;;;;;;;6.32;2.75;;;;;;;27.59;47.60;97038.53;2065767;28;20198;-65
2023/09/27 09:10:15;;;;;;;11.10;2.60;;;;;;;27.21;48.04;97043.44;2068797;28;20256;-65
2023/09/27 09:11:18;;;;;;;5.75;2.80;;;;;;;27.81;47.87;97045.06;2067685;28;20285;-65
2023/09/27 09:12:20;;;;;;;7.15;3.15;;;;;;;27.53;48.11;97045.38;2067629;28;20730;-65
2023/09/27 09:13:22;;;;;;;5.85;2.50;;;;;;;27.12;48.91;97045.28;2064656;28;20289;-65
2023/09/27 09:14:37;;;;;;;13.48;2.38;;;;;;;27.08;49.04;97048.44;2065250;28;20195;-65
2023/09/27 09:15:47;;;;;;;10.57;2.60;;;;;;;28.51;46.93;97046.34;2064505;28;20256;-65
2023/09/27 09:16:53;;;;;;;8.93;2.65;;;;;;;27.74;48.02;97041.38;2065140;28;20201;-65
2023/09/27 09:17:58;;;;;;;6.30;2.55;;;;;;;27.18;48.91;97038.44;2067569;28;20248;-65
2023/09/27 09:19:16;;;;;;;8.50;2.85;;;;;;;26.52;49.47;97038.16;2064663;28;20199;-65
2023/09/27 09:20:31;;;;;;;7.68;2.78;;;;;;;26.87;49.26;97039.84;2066999;28;20244;-65
2023/09/27 09:21:33;;;;;;;8.10;2.67;;;;;;;27.38;48.18;97034.44;2066678;28;20292;-65
2023/09/27 09:22:41;;;;;;;8.10;2.53;;;;;;;27.68;47.74;97025.94;2068306;28;20228;-65
2023/09/27 09:23:47;;;;;;;7.05;3.05;;;;;;;27.41;48.51;97035.97;2068693;28;21075;-65
2023/09/27 09:24:56;;;;;;;5.70;3.10;;;;;;;26.88;48.98;97028.13;2068912;28;20228;-65
2023/09/27 09:25:59;;;;;;;9.30;2.75;;;;;;;27.17;48.30;97031.38;2067141;28;20198;-66
2023/09/27 09:27:14;;;;;;;6.10;2.55;;;;;;;27.73;47.45;97034.34;2069066;28;20206;-65
2023/09/27 09:28:20;;;;;;;8.20;2.50;;;;;;;27.24;48.36;97031.59;2066603;28;20245;-65
2023/09/27 09:29:21;;;;;;;8.70;2.65;;;;;;;27.04;49.20;97032.69;2064539;28;20220;-65
2023/09/27 09:30:33;;;;;;;7.57;2.40;;;;;;;27.68;47.93;97026.81;2064390;28;20226;-65
2023/09/27 09:31:34;;;;;;;10.48;2.75;;;;;;;29.03;46.05;97029.88;2068631;28;20240;-65
2023/09/27 09:32:48;;;;;;;8.13;2.85;;;;;;;28.57;46.23;97030.53;2067533;28;20225;-65
2023/09/27 09:34:08;;;;;;;11.63;3.00;;;;;;;28.50;46.37;97033.09;2068577;28;20644;-66
2023/09/27 09:35:09;;;;;;;3.55;2.05;;;;;;;27.66;47.18;97023.44;2068348;28;20209;-65
2023/09/27 09:36:14;;;;;;;14.95;2.90;;;;;;;27.38;48.61;97028.25;2068177;28;20451;-65
2023/09/27 09:37:21;;;;;;;7.85;2.80;;;;;;;28.67;46.30;97024.00;2066547;28;20244;-66
2023/09/27 09:38:29;;;;;;;4.90;2.20;;;;;;;28.96;45.95;97032.44;2067552;28;20202;-65
2023/09/27 09:39:31;;;;;;;7.07;2.10;;;;;;;28.78;45.06;97021.94;2067939;28;20221;-65
2023/09/27 09:40:34;;;;;;;5.53;2.30;;;;;;;29.41;44.10;97021.97;2067053;28;20566;-65
2023/09/27 09:41:48;;;;;;;6.00;2.80;;;;;;;28.98;45.00;97022.34;2067976;28;20205;-65
2023/09/27 09:42:50;;;;;;;9.10;2.70;;;;;;;28.83;45.70;97011.50;2074831;28;20229;-66
2023/09/27 09:43:52;;;;;;;3.30;2.00;;;;;;;28.82;45.16;97020.56;2075692;28;20201;-65
2023/09/27 09:45:06;;;;;;;6.47;2.63;;;;;;;29.81;43.92;97017.28;2076923;28;20204;-66
2023/09/27 09:46:08;;;;;;;4.70;2.17;;;;;;;28.77;44.71;97014.88;2074865;28;20241;-65
2023/09/27 09:47:12;;;;;;;7.13;2.72;;;;;;;28.58;45.53;97014.28;2073665;28;20253;-66
2023/09/27 09:48:13;;;;;;;10.88;3.00;;;;;;;28.50;45.82;97008.91;2076728;28;20201;-66
2023/09/27 09:49:16;;;;;;;7.43;2.10;;;;;;;28.60;45.94;97017.59;2074957;28;20756;-66
2023/09/27 09:50:18;;;;;;;7.30;2.83;;;;;;;28.81;45.50;97019.75;2073675;28;20285;-65
2023/09/27 09:51:22;;;;;;;5.82;2.75;;;;;;;28.14;46.49;97012.88;2073357;28;20198;-65
2023/09/27 09:52:30;;;;;;;12.57;2.22;;;;;;;28.65;45.68;97017.09;2074906;28;20225;-66
2023/09/27 09:53:39;;;;;;;4.70;2.20;;;;;;;29.46;44.63;97014.19;2076424;28;20667;-66
2023/09/27 09:54:46;;;;;;;5.70;2.22;;;;;;;28.77;45.20;97012.19;2076774;28;20262;-65
2023/09/27 09:55:51;;;;;;;6.57;2.65;;;;;;;28.09;47.02;97009.03;2076601;28;20276;-65
2023/09/27 09:57:19;;;;;;;4.45;2.53;;;;;;;29.18;45.37;97014.69;2075130;28;20232;-66
2023/09/27 09:58:50;;;;;;;4.80;2.42;;;;;;;29.68;43.86;97009.81;2076078;28;20197;-66
2023/09/27 09:59:57;;;;;;;5.80;2.10;;;;;;;29.26;44.76;97009.25;2072353;28;20209;-65
2023/09/27 10:01:02;;;;;;;4.18;2.10;;;;;;;28.71;45.84;97016.44;2074086;28;20197;-65
2023/09/27 10:02:19;;;;;;;11.45;2.75;;;;;;;29.29;44.77;97014.31;2071942;28;20288;-65
2023/09/27 10:03:22;;;;;;;4.85;2.30;;;;;;;29.39;44.27;97016.75;2076782;28;20255;-65
2023/09/27 10:04:26;;;;;;;4.80;2.40;;;;;;;28.34;46.36;97012.47;2073657;28;20702;-66
2023/09/27 10:05:38;;;;;;;7.65;2.95;;;;;;;27.14;47.69;97019.16;2074221;28;20694;-65
2023/09/27 10:06:40;;;;;;;4.10;2.25;;;;;;;28.24;46.35;97011.84;2072123;28;20232;-65
2023/09/27 10:07:51;;;;;;;5.60;2.40;;;;;;;27.67;47.80;97006.34;2072916;28;20916;-65
2023/09/27 10:08:53;;;;;;;6.57;2.72;;;;;;;28.29;46.83;97002.28;2075787;28;20236;-65
2023/09/27 10:09:57;;;;;;;6.32;1.98;;;;;;;29.64;44.68;96997.75;2074803;28;20288;-65
2023/09/27 10:11:05;;;;;;;5.50;2.20;;;;;;;30.03;43.84;96998.59;2075989;28;20193;-65
2023/09/27 10:12:10;;;;;;;4.60;1.93;;;;;;;30.98;42.39;96997.00;2075581;28;20235;-65
2023/09/27 10:13:13;;;;;;;6.83;2.50;;;;;;;31.27;41.41;96998.84;2074502;28;21114;-65
2023/09/27 10:14:16;;;;;;;5.13;2.20;;;;;;;31.23;41.47;96996.72;2074474;28;21009;-66
2023/09/27 10:15:20;;;;;;;4.90;2.27;;;;;;;29.91;44.17;96999.03;2076526;28;20768;-65
2023/09/27 10:16:23;;;;;;;6.90;2.73;;;;;;;30.67;42.60;96991.88;2076985;28;20433;-66
2023/09/27 10:17:26;;;;;;;5.60;2.20;;;;;;;30.13;43.68;96996.47;2074918;28;20921;-65
2023/09/27 10:18:30;;;;;;;7.60;2.43;;;;;;;30.86;42.32;97001.25;2076676;28;20936;-66
2023/09/27 10:19:32;;;;;;;7.63;2.00;;;;;;;31.27;41.47;96996.13;2074405;28;20428;-65
2023/09/27 10:20:34;;;;;;;5.73;2.50;;;;;;;30.65;41.87;96983.13;2075627;28;20429;-66
2023/09/27 10:22:01;;;;;;;7.80;1.90;;;;;;;29.93;43.14;97002.41;2075545;28;20425;-66
2023/09/27 10:23:10;;;;;;;5.27;1.93;;;;;;;30.05;42.74;96999.25;2071864;28;20472;-65
2023/09/27 10:24:12;;;;;;;3.80;2.30;;;;;;;29.22;44.17;96993.66;2072173;28;20451;-66
2023/09/27 10:25:23;;;;;;;6.47;2.70;;;;;;;29.42;43.56;96988.66;2076452;28;20427;-65
2023/09/27 10:26:32;;;;;;;6.65;2.60;;;;;;;29.60;43.09;96983.00;2075656;28;20801;-65
2023/09/27 10:27:59;;;;;;;4.50;2.75;;;;;;;29.32;43.78;96994.28;2074027;28;20224;-66
2023/09/27 10:29:00;;;;;;;5.32;2.28;;;;;;;29.12;44.15;96983.13;2075445;28;20248;-66
2023/09/27 10:30:02;;;;;;;4.88;2.92;;;;;;;28.67;45.02;96977.47;2073999;28;20209;-65
2023/09/27 10:31:05;;;;;;;7.65;2.58;;;;;;;28.39;46.18;96979.75;2073664;28;20197;-66
2023/09/27 10:32:06;;;;;;;5.45;2.67;;;;;;;29.35;44.74;96982.34;2075307;28;20223;-66
2023/09/27 10:33:24;;;;;;;4.70;2.40;;;;;;;30.16;43.17;96984.50;2078068;28;20220;-66
2023/09/27 10:34:26;;;;;;;9.30;2.20;;;;;;;30.58;42.47;96977.66;2076803;28;20201;-66
2023/09/27 10:35:27;;;;;;;5.53;2.40;;;;;;;30.74;41.66;96980.16;2075295;28;20559;-66
2023/09/27 10:36:30;;;;;;;6.80;2.40;;;;;;;30.97;40.51;96971.09;2076276;28;20509;-66
2023/09/27 10:37:57;;;;;;;4.37;2.20;;;;;;;30.28;42.78;96975.81;2076613;28;20473;-66
2023/09/27 10:38:58;;;;;;;2.83;1.50;;;;;;;31.19;41.58;96979.25;2076259;28;20433;-66
2023/09/27 10:40:20;;;;;;;4.77;2.30;;;;;;;30.41;42.99;96976.97;2074617;28;20431;-66
2023/09/27 10:41:31;;;;;;;7.17;2.00;;;;;;;30.41;42.42;96976.97;2074981;28;20422;-66
2023/09/27 10:42:42;;;;;;;5.80;2.60;;;;;;;29.81;43.29;96977.75;2073801;28;20520;-66
2023/09/27 10:43:46;;;;;;;5.17;1.93;;;;;;;29.82;43.34;96975.88;2074548;28;20761;-66
2023/09/27 10:44:50;;;;;;;5.13;2.30;;;;;;;29.52;43.77;96975.78;2075292;28;20422;-66
2023/09/27 10:45:55;;;;;;;4.20;2.17;;;;;;;28.81;43.73;96976.75;2075166;28;20881;-65
2023/09/27 10:47:03;;;;;;;7.30;2.10;;;;;;;29.04;43.72;96975.97;2075022;28;20430;-66
2023/09/27 10:48:18;;;;;;;3.28;1.88;;;;;;;29.62;42.31;96973.72;2075282;28;20518;-66
2023/09/27 10:49:25;;;;;;;4.55;1.52;;;;;;;29.34;42.19;96970.72;2075551;28;20200;-65
2023/09/27 10:50:28;;;;;;;7.70;2.67;;;;;;;29.77;42.73;96971.03;2080572;28;20201;-66
2023/09/27 10:51:30;;;;;;;5.13;2.45;;;;;;;29.67;42.89;96977.72;2083233;28;20208;-66
2023/09/27 10:52:32;;;;;;;3.55;2.03;;;;;;;28.91;43.42;96970.31;2073620;28;20355;-66
2023/09/27 10:53:34;;;;;;;3.47;1.70;;;;;;;28.77;42.74;96972.75;2073597;28;20200;-66
2023/09/27 10:54:35;;;;;;;8.93;1.70;;;;;;;28.79;42.39;96967.19;2075914;28;20689;-66
2023/09/27 10:55:38;;;;;;;5.20;2.08;;;;;;;28.77;43.12;96970.06;2077406;28;20250;-66
2023/09/27 10:56:44;;;;;;;3.67;1.67;;;;;;;29.31;42.98;96974.63;2075017;28;20204;-66
2023/09/27 10:57:46;;;;;;;4.05;2.00;;;;;;;29.05;43.11;96976.78;2074712;28;20257;-66
2023/09/27 10:58:49;;;;;;;3.97;2.38;;;;;;;28.19;44.60;96972.09;2073229;28;20648;-65
2023/09/27 10:59:52;;;;;;;3.78;2.10;;;;;;;28.38;44.58;96980.75;2073054;28;20284;-65
2023/09/27 11:01:00;;;;;;;5.00;2.20;;;;;;;28.66;44.71;96976.66;2074738;28;20208;-69
2023/09/27 11:02:06;;;;;;;10.07;2.10;;;;;;;28.55;43.90;96973.50;2073435;28;20246;-69
2023/09/27 11:03:17;;;;;;;2.88;1.67;;;;;;;28.88;42.17;96966.13;2074290;28;20205;-69
2023/09/27 11:04:23;;;;;;;3.70;1.90;;;;;;;29.20;42.48;96963.41;2074108;28;20206;-69
2023/09/27 11:05:25;;;;;;;8.52;1.88;;;;;;;30.18;41.62;96960.94;2072105;28;20547;-70
2023/09/27 11:06:28;;;;;;;2.78;1.42;;;;;;;31.22;39.88;96957.28;2075418;28;20201;-70
2023/09/27 11:07:46;;;;;;;3.47;1.50;;;;;;;32.21;38.81;96955.63;2075350;28;20308;-69
2023/09/27 11:08:48;;;;;;;3.42;1.40;;;;;;;32.70;37.96;96957.34;2075795;28;20780;-70
2023/09/27 11:09:52;;;;;;;9.03;1.43;;;;;;;32.91;37.87;96954.75;2071826;28;20301;-70
2023/09/27 11:10:56;;;;;;;5.17;1.73;;;;;;;31.52;39.61;96954.47;2072488;28;20778;-69
2023/09/27 11:11:59;;;;;;;14.03;2.07;;;;;;;32.05;38.94;96954.06;2076281;28;20438;-70
2023/09/27 11:13:19;;;;;;;9.53;2.00;;;;;;;31.37;39.51;96947.25;2075138;28;20453;-70
2023/09/27 11:14:24;;;;;;;6.77;2.50;;;;;;;30.63;40.85;96948.31;2074896;28;20484;-70
2023/09/27 11:15:26;;;;;;;4.07;1.60;;;;;;;30.39;40.92;96944.03;2075467;28;20423;-70
2023/09/27 11:16:29;;;;;;;12.03;1.97;;;;;;;29.96;41.98;96944.66;2076486;28;20431;-70
2023/09/27 11:17:30;;;;;;;9.23;2.57;;;;;;;30.50;41.32;96950.81;2076216;28;20469;-70
2023/09/27 11:18:36;;;;;;;8.43;2.20;;;;;;;30.65;41.25;96942.72;2072136;28;20423;-70
2023/09/27 11:19:37;;;;;;;6.30;1.80;;;;;;;29.77;40.68;96954.91;2072268;28;20454;-70
2023/09/27 11:20:42;;;;;;;3.63;1.80;;;;;;;28.90;42.40;96947.13;2072048;28;20510;-69
2023/09/27 11:21:44;;;;;;;3.20;1.47;;;;;;;29.54;41.72;96944.19;2072495;28;20484;-70
2023/09/27 11:22:46;;;;;;;4.23;1.67;;;;;;;29.13;42.41;96939.13;2075082;28;21039;-69
2023/09/27 11:24:07;;;;;;;3.00;1.60;;;;;;;29.35;41.13;96937.47;2075232;28;20824;-69
2023/09/27 11:25:30;;;;;;;4.80;1.93;;;;;;;30.46;40.42;96942.25;2076069;28;20427;-69
2023/09/27 11:26:32;;;;;;;4.90;1.43;;;;;;;31.33;38.77;96942.47;2079914;28;20413;-69
2023/09/27 11:27:34;;;;;;;8.20;1.50;;;;;;;31.22;38.70;96933.84;2079833;28;20520;-69
2023/09/27 11:28:36;;;;;;;5.43;1.87;;;;;;;30.35;39.78;96932.78;2075393;28;20465;-69
2023/09/27 11:29:37;;;;;;;2.87;1.70;;;;;;;29.85;40.60;96926.25;2075465;28;20429;-69
2023/09/27 11:30:39;;;;;;;2.70;1.53;;;;;;;30.60;39.85;96921.72;2075205;28;20790;-69
2023/09/27 11:31:40;;;;;;;5.77;1.60;;;;;;;29.89;40.51;96923.06;2077525;28;20573;-69
2023/09/27 11:32:49;;;;;;;4.90;1.77;;;;;;;29.78;40.23;96923.47;2073257;28;20459;-69
2023/09/27 11:33:51;;;;;;;3.97;1.27;;;;;;;29.37;40.79;96924.69;2077350;28;20430;-70
2023/09/27 11:34:57;;;;;;;5.77;1.57;;;;;;;30.21;40.08;96918.31;2076947;28;20430;-69
2023/09/27 11:36:03;;;;;;;5.70;1.27;;;;;;;30.65;38.49;96921.16;2076414;28;20437;-70
2023/09/27 11:37:05;;;;;;;1.80;1.20;;;;;;;28.53;41.36;96925.31;2073953;28;20554;-69
2023/09/27 11:38:12;;;;;;;2.20;1.13;;;;;;;29.00;40.16;96916.34;2076703;28;20419;-69
2023/09/27 11:39:16;;;;;;;2.90;1.73;;;;;;;29.00;40.66;96910.13;2073370;28;20268;-69
2023/09/27 11:40:31;;;;;;;3.00;1.52;;;;;;;29.34;40.42;96906.19;2076413;28;20694;-69
2023/09/27 11:41:33;;;;;;;7.10;1.40;;;;;;;28.76;41.93;96914.66;2076795;28;20247;-69
2023/09/27 11:42:35;;;;;;;4.15;1.77;;;;;;;29.05;41.81;96910.44;2076252;28;20224;-69
2023/09/27 11:43:36;;;;;;;2.28;1.52;;;;;;;28.37;42.41;96907.44;2076818;28;20209;-69
2023/09/27 11:44:38;;;;;;;6.28;1.85;;;;;;;29.44;40.29;96903.28;2077094;28;20198;-69
2023/09/27 11:45:44;;;;;;;3.30;1.52;;;;;;;29.19;41.00;96902.59;2076639;28;20272;-69
2023/09/27 11:46:47;;;;;;;5.85;1.55;;;;;;;29.28;41.22;96909.59;2077159;28;20198;-69
2023/09/27 11:47:51;;;;;;;4.15;1.70;;;;;;;29.51;40.74;96896.16;2076429;28;20221;-69